createdAt,value
2022-11-09T00:01:31.936Z,1.90
2022-11-09T00:06:34.276Z,2.22
2022-11-09T00:11:36.834Z,2.53
2022-11-09T00:16:38.583Z,3.55
2022-11-09T00:21:39.993Z,2.78
2022-11-09T00:26:41.559Z,2.92
2022-11-09T00:31:43.738Z,2.60
2022-11-09T00:36:45.178Z,3.20
2022-11-09T00:41:46.908Z,2.60
2022-11-09T00:46:48.291Z,3.28
2022-11-09T00:51:50.622Z,2.83
2022-11-09T00:56:52.273Z,2.65
2022-11-09T01:01:53.614Z,2.60
2022-11-09T01:06:55.111Z,2.20
2022-11-09T01:11:56.702Z,2.20
2022-11-09T01:16:58.102Z,2.33
2022-11-09T01:21:59.462Z,2.00
2022-11-09T01:27:01.180Z,1.95
2022-11-09T01:32:02.847Z,2.58
2022-11-09T01:37:04.481Z,2.88
2022-11-09T01:42:05.942Z,2.65
2022-11-09T01:47:12.318Z,2.70
2022-11-09T01:52:16.311Z,2.38
2022-11-09T01:57:29.545Z,2.20
2022-11-09T02:02:31.073Z,2.35
2022-11-09T02:07:33.152Z,2.58
2022-11-09T02:12:35.363Z,3.05
2022-11-09T02:17:36.851Z,2.00
2022-11-09T02:22:38.382Z,2.28
2022-11-09T02:27:40.264Z,2.25
2022-11-09T02:32:41.637Z,3.63
2022-11-09T02:37:48.632Z,2.83
2022-11-09T02:42:50.151Z,2.88
2022-11-09T02:47:51.542Z,2.30
2022-11-09T02:52:52.895Z,2.30
2022-11-09T02:57:54.277Z,1.85
2022-11-09T03:02:55.654Z,2.00
2022-11-09T03:07:57.596Z,2.83
2022-11-09T03:12:59.027Z,2.60
2022-11-09T03:18:00.395Z,2.20
2022-11-09T03:23:01.874Z,2.75
2022-11-09T03:28:04.641Z,2.28
2022-11-09T03:33:10.370Z,2.20
2022-11-09T03:38:12.140Z,2.92
2022-11-09T03:43:13.699Z,2.50
2022-11-09T03:48:15.169Z,1.98
2022-11-09T03:53:16.768Z,2.47
2022-11-09T03:58:20.480Z,2.42
2022-11-09T04:03:22.263Z,2.70
2022-11-09T04:08:23.871Z,2.50
2022-11-09T04:13:25.271Z,2.58
2022-11-09T04:18:26.652Z,2.30
2022-11-09T04:23:28.615Z,2.13
2022-11-09T04:28:30.015Z,2.33
2022-11-09T04:33:31.503Z,2.28
2022-11-09T04:38:33.000Z,1.80
2022-11-09T04:43:34.711Z,2.10
2022-11-09T04:48:36.805Z,2.72
2022-11-09T04:53:38.985Z,2.20
2022-11-09T04:58:40.480Z,2.45
2022-11-09T05:03:42.280Z,2.83
2022-11-09T05:08:43.811Z,2.45
2022-11-09T05:13:45.634Z,2.28
2022-11-09T05:18:47.346Z,2.47
2022-11-09T05:24:01.139Z,2.42
2022-11-09T05:29:04.468Z,2.35
2022-11-09T05:34:06.783Z,1.67
2022-11-09T05:39:08.203Z,1.88
2022-11-09T05:44:09.840Z,1.98
2022-11-09T05:49:11.324Z,2.15
2022-11-09T05:54:12.903Z,2.78
2022-11-09T05:59:14.353Z,2.17
2022-11-09T06:04:15.854Z,2.10
2022-11-09T06:09:19.491Z,2.78
2022-11-09T06:14:20.913Z,2.33
2022-11-09T06:19:22.380Z,2.10
2022-11-09T06:24:23.888Z,2.47
2022-11-09T06:29:25.221Z,1.90
2022-11-09T06:34:26.853Z,3.10
2022-11-09T06:39:28.535Z,2.55
2022-11-09T06:44:29.934Z,2.13
2022-11-09T06:49:31.390Z,2.42
2022-11-09T06:54:33.914Z,2.50
2022-11-09T06:59:37.131Z,2.42
2022-11-09T07:04:38.599Z,2.45
2022-11-09T07:09:40.124Z,2.08
2022-11-09T07:14:41.512Z,2.35
2022-11-09T07:19:43.296Z,2.20
2022-11-09T07:24:44.671Z,2.08
2022-11-09T07:29:46.244Z,2.42
2022-11-09T07:34:47.962Z,2.08
2022-11-09T07:39:49.631Z,2.40
2022-11-09T07:44:51.340Z,2.65
2022-11-09T07:49:52.773Z,2.38
2022-11-09T07:54:54.179Z,2.78
2022-11-09T07:59:55.818Z,2.38
2022-11-09T08:04:57.260Z,2.97
2022-11-09T08:09:58.932Z,2.60
2022-11-09T08:15:00.325Z,2.53
2022-11-09T08:20:02.084Z,2.53
2022-11-09T08:25:03.626Z,2.60
2022-11-09T08:30:05.156Z,2.45
2022-11-09T08:35:06.904Z,2.42
2022-11-09T08:40:08.649Z,2.35
2022-11-09T08:45:10.340Z,2.85
2022-11-09T08:50:12.683Z,3.40
2022-11-09T08:55:14.110Z,3.00
2022-11-09T09:00:15.754Z,3.17
2022-11-09T09:05:17.641Z,3.60
2022-11-09T09:10:19.092Z,3.00
2022-11-09T09:15:20.651Z,3.08
2022-11-09T09:20:22.151Z,3.60
2022-11-09T09:25:23.578Z,3.63
2022-11-09T09:30:25.091Z,3.33
2022-11-09T09:35:27.578Z,3.70
2022-11-09T09:40:31.708Z,3.78
2022-11-09T09:45:34.685Z,2.85
2022-11-09T09:50:55.909Z,4.07
2022-11-09T09:56:02.325Z,4.15
2022-11-09T10:01:07.259Z,3.92
2022-11-09T10:06:30.122Z,4.78
2022-11-09T10:11:50.253Z,4.13
2022-11-09T10:21:58.912Z,4.43
2022-11-09T10:27:01.283Z,4.72
2022-11-09T10:32:12.825Z,4.95
2022-11-09T10:37:26.157Z,4.50
2022-11-09T10:42:27.661Z,4.88
2022-11-09T10:47:29.268Z,4.20
2022-11-09T10:52:32.849Z,5.15
2022-11-09T10:57:34.346Z,4.63
2022-11-09T11:02:46.070Z,5.32
2022-11-09T11:07:47.660Z,4.95
2022-11-09T11:12:57.310Z,4.63
2022-11-09T11:18:05.386Z,4.35
2022-11-09T11:23:09.655Z,3.80
2022-11-09T11:28:32.599Z,3.67
2022-11-09T11:33:34.698Z,3.65
2022-11-09T11:38:56.530Z,3.30
2022-11-09T11:43:57.936Z,2.75
2022-11-09T11:49:15.501Z,2.30
2022-11-09T11:54:16.901Z,3.15
2022-11-09T11:59:28.800Z,2.67
2022-11-09T12:04:33.033Z,2.22
2022-11-09T12:09:46.879Z,2.40
2022-11-09T12:14:55.288Z,2.33
2022-11-09T12:19:56.998Z,2.42
2022-11-09T12:25:02.609Z,2.80
2022-11-09T12:30:09.578Z,2.00
2022-11-09T12:35:34.868Z,2.53
2022-11-09T12:40:49.020Z,2.00
2022-11-09T12:45:52.006Z,1.98
2022-11-09T12:50:53.865Z,2.05
2022-11-09T12:55:55.432Z,1.63
2022-11-09T13:00:58.089Z,2.33
2022-11-09T13:06:17.470Z,2.15
2022-11-09T13:11:21.176Z,2.33
2022-11-09T13:16:33.518Z,1.65
2022-11-09T13:21:38.977Z,2.03
2022-11-09T13:26:46.237Z,1.73
2022-11-09T13:31:59.536Z,1.70
2022-11-09T13:37:19.775Z,1.98
2022-11-09T13:42:39.388Z,1.90
2022-11-09T13:47:51.402Z,1.90
2022-11-09T13:52:53.627Z,2.08
2022-11-09T13:57:56.061Z,2.10
2022-11-09T14:03:02.991Z,1.52
2022-11-09T14:08:05.148Z,2.10
2022-11-09T14:13:06.546Z,1.40
2022-11-09T14:18:20.032Z,1.20
2022-11-09T14:23:22.793Z,1.08
2022-11-09T14:28:28.171Z,2.03
2022-11-09T14:33:30.686Z,1.73
2022-11-09T14:38:34.046Z,2.40
2022-11-09T14:43:38.289Z,2.20
2022-11-09T14:48:44.844Z,2.08
2022-11-09T14:53:50.055Z,1.55
2022-11-09T14:58:52.076Z,1.90
2022-11-09T15:04:12.070Z,2.63
2022-11-09T15:09:20.901Z,1.52
2022-11-09T15:14:25.288Z,1.58
2022-11-09T15:19:31.178Z,1.73
2022-11-09T15:24:46.292Z,1.90
2022-11-09T15:29:47.896Z,1.73
2022-11-09T15:34:52.029Z,2.00
2022-11-09T15:39:55.459Z,1.83
2022-11-09T15:44:59.500Z,1.80
2022-11-09T15:50:02.023Z,2.10
2022-11-09T15:55:03.526Z,2.25
2022-11-09T16:00:09.209Z,1.92
2022-11-09T16:05:20.439Z,1.98
2022-11-09T16:10:27.617Z,1.70
2022-11-09T16:15:31.897Z,1.80
2022-11-09T16:20:33.406Z,1.85
2022-11-09T16:25:34.965Z,1.85
2022-11-09T16:30:36.392Z,1.88
2022-11-09T16:35:37.981Z,2.22
2022-11-09T16:40:39.939Z,1.75
2022-11-09T16:45:48.883Z,1.55
2022-11-09T16:50:53.473Z,1.70
2022-11-09T16:55:55.343Z,1.85
2022-11-09T17:01:10.407Z,2.08
2022-11-09T17:06:13.341Z,2.45
2022-11-09T17:11:15.572Z,2.35
2022-11-09T17:16:20.994Z,1.52
2022-11-09T17:21:23.777Z,2.75
2022-11-09T17:26:25.886Z,1.60
2022-11-09T17:31:27.308Z,1.58
2022-11-09T17:36:56.938Z,2.08
2022-11-09T17:41:58.969Z,2.03
2022-11-09T17:47:00.395Z,2.05
2022-11-09T17:52:01.789Z,2.20
2022-11-09T17:57:03.427Z,1.85
2022-11-09T18:02:04.851Z,2.10
2022-11-09T18:07:06.379Z,2.20
2022-11-09T18:12:07.898Z,1.98
2022-11-09T18:17:09.389Z,2.00
2022-11-09T18:22:12.860Z,2.55
2022-11-09T18:27:14.887Z,2.30
2022-11-09T18:32:16.472Z,2.75
2022-11-09T18:37:18.094Z,1.55
2022-11-09T18:42:19.786Z,1.98
2022-11-09T18:47:21.312Z,1.70
2022-11-09T18:52:24.232Z,1.13
2022-11-09T18:57:25.924Z,1.60
2022-11-09T19:02:27.430Z,1.75
2022-11-09T19:07:29.147Z,1.70
2022-11-09T19:12:34.545Z,1.85
2022-11-09T19:17:37.608Z,2.17
2022-11-09T19:22:39.132Z,2.60
2022-11-09T19:27:41.420Z,2.40
2022-11-09T19:32:42.790Z,2.22
2022-11-09T19:37:46.232Z,1.73
2022-11-09T19:42:47.830Z,2.38
2022-11-09T19:47:49.670Z,2.17
2022-11-09T19:52:51.236Z,3.03
2022-11-09T19:57:52.667Z,3.50
2022-11-09T20:02:54.158Z,3.13
2022-11-09T20:07:55.753Z,2.47
2022-11-09T20:12:57.410Z,1.92
2022-11-09T20:17:58.888Z,1.75
2022-11-09T20:23:00.465Z,2.20
2022-11-09T20:28:01.987Z,1.98
2022-11-09T20:33:03.569Z,2.60
2022-11-09T20:38:04.990Z,1.80
2022-11-09T20:43:06.716Z,2.30
2022-11-09T20:48:24.851Z,2.47
2022-11-09T20:53:29.700Z,1.85
2022-11-09T20:58:31.104Z,1.80
2022-11-09T21:03:33.192Z,2.00
2022-11-09T21:08:35.068Z,2.53
2022-11-09T21:13:36.527Z,3.20
2022-11-09T21:18:38.077Z,2.97
2022-11-09T21:23:58.580Z,2.72
2022-11-09T21:29:18.472Z,3.00
2022-11-09T21:34:19.915Z,2.60
2022-11-09T21:39:21.360Z,2.50
2022-11-09T21:44:22.885Z,2.70
2022-11-09T21:49:24.372Z,2.45
2022-11-09T21:54:25.994Z,2.55
2022-11-09T21:59:27.443Z,2.40
2022-11-09T22:04:28.843Z,2.40
2022-11-09T22:09:50.599Z,2.30
2022-11-09T22:15:10.654Z,2.30
2022-11-09T22:20:30.505Z,2.65
2022-11-09T22:25:31.847Z,2.97
2022-11-09T22:30:33.268Z,2.20
2022-11-09T22:35:34.684Z,2.58
2022-11-09T22:40:36.094Z,2.33
2022-11-09T22:45:37.611Z,2.20
2022-11-09T22:50:38.989Z,2.28
2022-11-09T22:55:40.378Z,2.40
2022-11-09T23:00:42.049Z,2.00
2022-11-09T23:05:43.780Z,2.25
2022-11-09T23:10:53.324Z,2.80
2022-11-09T23:15:58.377Z,2.30
2022-11-09T23:21:00.513Z,2.50
2022-11-09T23:26:03.246Z,2.38
2022-11-09T23:31:12.376Z,2.30
2022-11-09T23:36:14.133Z,2.53
2022-11-09T23:41:15.806Z,2.85
2022-11-09T23:46:17.448Z,2.33
2022-11-09T23:51:19.018Z,2.50
2022-11-09T23:56:21.767Z,2.40
